createdAt,value
2018-07-19T00:00:05.166Z,0.00
2018-07-19T00:01:05.160Z,0.00
2018-07-19T00:02:05.144Z,0.00
2018-07-19T00:03:05.212Z,0.00
2018-07-19T00:04:05.125Z,0.00
2018-07-19T00:05:05.117Z,0.00
2018-07-19T00:06:05.102Z,0.00
2018-07-19T00:07:05.091Z,0.00
2018-07-19T00:08:05.168Z,0.00
2018-07-19T00:09:05.069Z,0.00
2018-07-19T00:10:05.058Z,0.00
2018-07-19T00:11:05.047Z,0.00
2018-07-19T00:12:05.039Z,0.00
2018-07-19T00:13:05.091Z,0.00
2018-07-19T00:14:05.019Z,0.00
2018-07-19T00:15:05.008Z,0.00
2018-07-19T00:16:04.997Z,0.00
2018-07-19T00:17:04.986Z,0.00
2018-07-19T00:18:05.042Z,0.00
2018-07-19T00:19:05.718Z,0.00
2018-07-19T00:20:04.953Z,0.00
2018-07-19T00:21:04.947Z,0.00
2018-07-19T00:22:04.933Z,0.00
2018-07-19T00:23:04.988Z,0.00
2018-07-19T00:24:04.914Z,0.00
2018-07-19T00:25:04.903Z,0.00
2018-07-19T00:26:04.887Z,0.00
2018-07-19T00:27:04.878Z,0.00
2018-07-19T00:28:04.934Z,0.00
2018-07-19T00:29:04.853Z,0.00
2018-07-19T00:30:04.842Z,0.00
2018-07-19T00:31:04.834Z,0.00
2018-07-19T00:32:04.827Z,0.00
2018-07-19T00:33:04.883Z,0.00
2018-07-19T00:34:04.811Z,0.00
2018-07-19T00:35:04.794Z,0.00
2018-07-19T00:36:04.781Z,0.00
2018-07-19T00:37:04.767Z,0.00
2018-07-19T00:38:04.823Z,0.00
2018-07-19T00:39:04.750Z,0.00
2018-07-19T00:40:06.684Z,0.00
2018-07-19T00:41:04.723Z,0.00
2018-07-19T00:42:04.715Z,0.00
2018-07-19T00:43:04.770Z,0.00
2018-07-19T00:44:04.693Z,0.00
2018-07-19T00:45:04.682Z,0.00
2018-07-19T00:46:04.673Z,0.00
2018-07-19T00:47:04.662Z,0.00
2018-07-19T00:48:04.718Z,0.00
2018-07-19T00:49:04.641Z,0.00
2018-07-19T00:50:04.629Z,0.00
2018-07-19T00:51:04.620Z,0.00
2018-07-19T00:52:04.609Z,0.00
2018-07-19T00:53:04.662Z,0.00
2018-07-19T00:54:04.597Z,0.00
2018-07-19T00:55:04.579Z,0.00
2018-07-19T00:56:13.192Z,0.00
2018-07-19T00:57:12.677Z,0.00
2018-07-19T00:58:15.864Z,0.00
2018-07-19T00:59:12.068Z,0.00
2018-07-19T01:00:12.052Z,0.00
2018-07-19T01:01:04.510Z,0.00
2018-07-19T01:02:04.498Z,0.00
2018-07-19T01:03:04.570Z,0.00
2018-07-19T01:04:04.479Z,0.00
2018-07-19T01:05:04.469Z,0.00
2018-07-19T01:06:04.524Z,0.00
2018-07-19T01:07:04.446Z,0.00
2018-07-19T01:08:04.438Z,0.00
2018-07-19T01:09:04.494Z,0.00
2018-07-19T01:10:04.418Z,0.00
2018-07-19T01:11:04.406Z,0.00
2018-07-19T01:12:04.399Z,0.00
2018-07-19T01:13:04.388Z,0.00
2018-07-19T01:14:04.440Z,0.00
2018-07-19T01:15:04.363Z,0.00
2018-07-19T01:16:04.352Z,0.00
2018-07-19T01:17:04.344Z,0.00
2018-07-19T01:18:04.338Z,0.00
2018-07-19T01:19:04.390Z,0.00
2018-07-19T01:20:04.310Z,0.00
2018-07-19T01:21:05.853Z,0.00
2018-07-19T01:22:04.291Z,0.00
2018-07-19T01:23:04.283Z,0.00
2018-07-19T01:24:04.338Z,0.00
2018-07-19T01:25:04.262Z,0.00
2018-07-19T01:26:04.249Z,0.00
2018-07-19T01:27:04.238Z,0.00
2018-07-19T01:28:04.227Z,0.00
2018-07-19T01:29:04.285Z,0.00
2018-07-19T01:30:04.209Z,0.00
2018-07-19T01:31:04.199Z,0.00
2018-07-19T01:32:04.188Z,0.00
2018-07-19T01:33:04.175Z,0.00
2018-07-19T01:34:04.232Z,0.00
2018-07-19T01:35:04.160Z,0.00
2018-07-19T01:36:04.148Z,0.00
2018-07-19T01:37:04.132Z,0.00
2018-07-19T01:38:04.122Z,0.00
2018-07-19T01:39:04.182Z,0.00
2018-07-19T01:40:04.102Z,0.00
2018-07-19T01:41:04.094Z,0.00
2018-07-19T01:42:04.848Z,0.00
2018-07-19T01:43:04.071Z,0.00
2018-07-19T01:44:04.121Z,0.00
2018-07-19T01:45:04.049Z,0.00
2018-07-19T01:46:04.038Z,0.00
2018-07-19T01:47:04.030Z,0.00
2018-07-19T01:48:04.019Z,0.00
2018-07-19T01:49:04.074Z,0.00
2018-07-19T01:50:03.998Z,0.00
2018-07-19T01:51:03.988Z,0.00
2018-07-19T01:52:03.975Z,0.00
2018-07-19T01:53:03.964Z,0.00
2018-07-19T01:54:04.019Z,0.00
2018-07-19T01:55:03.944Z,0.00
2018-07-19T01:56:03.933Z,0.00
2018-07-19T01:57:03.922Z,0.00
2018-07-19T01:58:03.914Z,0.00
2018-07-19T01:59:03.969Z,0.00
2018-07-19T02:00:03.934Z,0.00
2018-07-19T02:01:03.883Z,0.00
2018-07-19T02:02:03.867Z,0.00
2018-07-19T02:03:04.845Z,0.00
2018-07-19T02:04:03.913Z,0.00
2018-07-19T02:05:03.837Z,0.00
2018-07-19T02:06:03.829Z,0.00
2018-07-19T02:07:03.817Z,0.00
2018-07-19T02:08:03.806Z,0.00
2018-07-19T02:09:03.877Z,0.00
2018-07-19T02:10:03.787Z,0.00
2018-07-19T02:11:03.773Z,0.00
2018-07-19T02:12:03.768Z,0.00
2018-07-19T02:13:03.756Z,0.00
2018-07-19T02:14:03.811Z,0.00
2018-07-19T02:15:03.731Z,0.00
2018-07-19T02:16:03.723Z,0.00
2018-07-19T02:17:03.712Z,0.00
2018-07-19T02:18:03.698Z,0.00
2018-07-19T02:19:03.767Z,0.00
2018-07-19T02:20:03.684Z,0.00
2018-07-19T02:21:03.673Z,0.00
2018-07-19T02:22:03.665Z,0.00
2018-07-19T02:23:03.715Z,0.00
2018-07-19T02:24:04.345Z,0.00
2018-07-19T02:25:03.693Z,0.00
2018-07-19T02:26:03.618Z,0.00
2018-07-19T02:27:03.610Z,0.00
2018-07-19T02:28:03.601Z,0.00
2018-07-19T02:29:03.585Z,0.00
2018-07-19T02:30:03.632Z,0.00
2018-07-19T02:31:03.563Z,0.00
2018-07-19T02:32:03.554Z,0.00
2018-07-19T02:33:03.543Z,0.00
2018-07-19T02:34:03.532Z,0.00
2018-07-19T02:35:03.587Z,0.00
2018-07-19T02:36:03.510Z,0.00
2018-07-19T02:37:03.501Z,0.00
2018-07-19T02:38:03.491Z,0.00
2018-07-19T02:39:03.480Z,0.00
2018-07-19T02:40:03.540Z,0.00
2018-07-19T02:41:03.454Z,0.00
2018-07-19T02:42:03.443Z,0.00
2018-07-19T02:43:03.438Z,0.00
2018-07-19T02:44:03.429Z,0.00
2018-07-19T02:45:03.922Z,0.00
2018-07-19T02:46:03.408Z,0.00
2018-07-19T02:47:03.401Z,0.00
2018-07-19T02:48:03.383Z,0.00
2018-07-19T02:49:03.371Z,0.00
2018-07-19T02:50:03.426Z,0.00
2018-07-19T02:51:03.350Z,0.00
2018-07-19T02:52:03.351Z,0.00
2018-07-19T02:53:03.330Z,0.00
2018-07-19T02:54:03.319Z,0.00
2018-07-19T02:55:03.379Z,0.00
2018-07-19T02:56:03.300Z,0.00
2018-07-19T02:57:03.293Z,0.00
2018-07-19T02:58:03.274Z,0.00
2018-07-19T02:59:03.270Z,0.00
2018-07-19T03:00:03.320Z,0.00
2018-07-19T03:01:03.244Z,0.00
2018-07-19T03:02:03.288Z,4.00
2018-07-19T03:03:03.226Z,4.00
2018-07-19T03:04:03.214Z,4.00
2018-07-19T03:05:03.266Z,0.00
2018-07-19T03:06:03.843Z,4.00
2018-07-19T03:07:03.185Z,4.00
2018-07-19T03:08:03.173Z,8.00
2018-07-19T03:09:03.160Z,4.00
2018-07-19T03:10:03.213Z,8.00
2018-07-19T03:11:03.134Z,8.00
2018-07-19T03:12:03.126Z,12.00
2018-07-19T03:13:03.118Z,12.00
2018-07-19T03:14:03.103Z,12.00
2018-07-19T03:15:03.153Z,16.00
2018-07-19T03:16:03.084Z,16.00
2018-07-19T03:17:03.073Z,20.00
2018-07-19T03:18:03.062Z,20.00
2018-07-19T03:19:03.050Z,24.00
2018-07-19T03:20:03.109Z,28.00
2018-07-19T03:21:03.028Z,32.00
2018-07-19T03:22:03.838Z,36.00
2018-07-19T03:23:03.010Z,44.00
2018-07-19T03:24:02.998Z,52.00
2018-07-19T03:25:03.053Z,60.00
2018-07-19T03:26:02.984Z,64.00
2018-07-19T03:27:03.840Z,76.00
2018-07-19T03:28:02.954Z,84.00
2018-07-19T03:29:02.945Z,92.00
2018-07-19T03:30:03.008Z,104.00
2018-07-19T03:31:02.969Z,116.00
2018-07-19T03:32:02.931Z,128.00
2018-07-19T03:33:02.903Z,140.00
2018-07-19T03:34:02.894Z,156.00
2018-07-19T03:35:02.948Z,168.00
2018-07-19T03:36:02.870Z,188.00
2018-07-19T03:37:02.860Z,204.00
2018-07-19T03:38:02.848Z,220.00
2018-07-19T03:39:02.840Z,240.00
2018-07-19T03:40:02.948Z,264.00
2018-07-19T03:41:02.815Z,288.00
2018-07-19T03:42:02.810Z,308.00
2018-07-19T03:43:02.799Z,332.00
2018-07-19T03:44:02.785Z,356.00
2018-07-19T03:45:02.840Z,380.00
2018-07-19T03:46:02.766Z,408.00
2018-07-19T03:47:02.752Z,432.00
2018-07-19T03:48:03.338Z,460.00
2018-07-19T03:49:02.733Z,496.00
2018-07-19T03:50:02.721Z,520.00
2018-07-19T03:51:02.781Z,556.00
2018-07-19T03:52:02.699Z,588.00
2018-07-19T03:53:02.691Z,620.00
2018-07-19T03:54:02.677Z,652.00
2018-07-19T03:55:02.669Z,684.00
2018-07-19T03:56:02.721Z,720.00
2018-07-19T03:57:02.647Z,756.00
2018-07-19T03:58:02.649Z,792.00
2018-07-19T03:59:02.625Z,832.00
2018-07-19T04:00:02.616Z,868.00
2018-07-19T04:01:02.669Z,904.00
2018-07-19T04:02:02.616Z,940.00
2018-07-19T04:03:02.580Z,976.00
2018-07-19T04:04:02.575Z,1020.00
2018-07-19T04:05:02.560Z,1060.00
2018-07-19T04:06:02.619Z,1100.00
2018-07-19T04:07:02.541Z,1144.00
2018-07-19T04:08:02.533Z,1188.00
2018-07-19T04:09:03.336Z,1232.00
2018-07-19T04:10:02.511Z,1276.00
2018-07-19T04:11:02.566Z,1324.00
2018-07-19T04:12:02.488Z,1372.00
2018-07-19T04:13:02.483Z,1420.00
2018-07-19T04:14:02.467Z,1468.00
2018-07-19T04:15:02.456Z,1516.00
2018-07-19T04:16:02.509Z,1560.00
2018-07-19T04:17:02.445Z,1608.00
2018-07-19T04:18:02.425Z,1656.00
2018-07-19T04:19:02.423Z,1700.00
2018-07-19T04:20:02.400Z,1752.00
2018-07-19T04:21:02.458Z,1804.00
2018-07-19T04:22:02.383Z,1856.00
2018-07-19T04:23:02.369Z,1908.00
2018-07-19T04:24:02.359Z,1964.00
2018-07-19T04:25:02.401Z,2016.00
2018-07-19T04:26:02.402Z,2072.00
2018-07-19T04:27:02.333Z,2120.00
2018-07-19T04:28:02.316Z,2172.00
2018-07-19T04:29:02.304Z,2224.00
2018-07-19T04:30:02.835Z,2272.00
2018-07-19T04:31:02.355Z,2324.00
2018-07-19T04:32:02.275Z,2376.00
2018-07-19T04:33:02.266Z,2432.00
2018-07-19T04:34:02.269Z,2484.00
2018-07-19T04:35:02.245Z,2544.00
2018-07-19T04:36:02.305Z,2600.00
2018-07-19T04:37:02.224Z,2660.00
2018-07-19T04:38:02.211Z,2720.00
2018-07-19T04:39:02.201Z,2780.00
2018-07-19T04:40:02.195Z,2844.00
2018-07-19T04:41:02.240Z,2908.00
2018-07-19T04:42:02.173Z,2976.00
2018-07-19T04:43:02.164Z,3036.00
2018-07-19T04:44:02.145Z,3100.00
2018-07-19T04:45:02.137Z,3160.00
2018-07-19T04:46:02.192Z,3224.00
2018-07-19T04:47:02.112Z,3288.00
2018-07-19T04:48:02.117Z,3352.00
2018-07-19T04:49:02.101Z,3424.00
2018-07-19T04:50:02.094Z,3492.00
2018-07-19T04:51:02.410Z,3560.00
2018-07-19T04:52:02.062Z,3632.00
2018-07-19T04:53:02.051Z,3704.00
2018-07-19T04:54:09.569Z,3772.00
2018-07-19T04:55:02.029Z,3844.00
2018-07-19T04:56:02.097Z,3924.00
2018-07-19T04:57:02.014Z,4000.00
2018-07-19T04:58:01.999Z,4084.00
2018-07-19T04:59:01.985Z,4156.00
2018-07-19T05:00:01.997Z,4232.00
2018-07-19T05:01:02.037Z,4300.00
2018-07-19T05:02:02.013Z,4376.00
2018-07-19T05:03:01.952Z,4444.00
2018-07-19T05:04:01.933Z,4520.00
2018-07-19T05:05:01.924Z,4600.00
2018-07-19T05:06:01.976Z,4672.00
2018-07-19T05:07:01.903Z,4748.00
2018-07-19T05:08:01.894Z,4820.00
2018-07-19T05:09:01.898Z,4884.00
2018-07-19T05:10:01.868Z,4952.00
2018-07-19T05:11:01.942Z,5012.00
2018-07-19T05:12:01.849Z,5080.00
2018-07-19T05:13:01.835Z,5156.00
2018-07-19T05:14:01.834Z,5232.00
2018-07-19T05:15:02.380Z,5308.00
2018-07-19T05:16:01.897Z,5396.00
2018-07-19T05:17:01.799Z,5476.00
2018-07-19T05:18:01.788Z,5560.00
2018-07-19T05:19:01.776Z,5644.00
2018-07-19T05:20:01.760Z,5724.00
2018-07-19T05:21:01.833Z,5796.00
2018-07-19T05:22:01.747Z,5868.00
2018-07-19T05:23:02.374Z,5944.00
2018-07-19T05:24:01.725Z,6028.00
2018-07-19T05:25:01.713Z,6108.00
2018-07-19T05:26:01.771Z,6196.00
2018-07-19T05:27:01.694Z,6288.00
2018-07-19T05:28:01.698Z,6380.00
2018-07-19T05:29:01.704Z,6476.00
2018-07-19T05:30:01.666Z,6556.00
2018-07-19T05:31:01.661Z,6628.00
2018-07-19T05:32:01.711Z,6684.00
2018-07-19T05:33:01.630Z,6740.00
2018-07-19T05:34:01.618Z,6792.00
2018-07-19T05:35:01.609Z,6848.00
2018-07-19T05:36:02.376Z,6908.00
2018-07-19T05:37:01.656Z,6980.00
2018-07-19T05:38:01.579Z,7056.00
2018-07-19T05:39:01.567Z,7140.00
2018-07-19T05:40:01.554Z,7220.00
2018-07-19T05:41:01.574Z,7296.00
2018-07-19T05:42:01.656Z,7364.00
2018-07-19T05:43:01.526Z,7432.00
2018-07-19T05:44:01.512Z,7500.00
2018-07-19T05:45:01.504Z,7564.00
2018-07-19T05:46:01.511Z,7640.00
2018-07-19T05:47:01.546Z,7728.00
2018-07-19T05:48:01.473Z,7812.00
2018-07-19T05:49:01.459Z,7920.00
2018-07-19T05:50:01.452Z,8044.00
2018-07-19T05:51:01.440Z,8180.00
2018-07-19T05:52:01.500Z,8328.00
2018-07-19T05:53:01.418Z,8524.00
2018-07-19T05:54:01.409Z,9784.00
2018-07-19T05:55:01.396Z,12800.00
2018-07-19T05:56:01.382Z,15584.00
2018-07-19T05:57:01.943Z,16128.00
2018-07-19T05:58:01.368Z,16224.00
2018-07-19T05:59:01.349Z,16736.00
2018-07-19T06:00:01.353Z,17152.00
2018-07-19T06:01:01.332Z,17120.00
2018-07-19T06:02:01.406Z,16960.00
2018-07-19T06:03:01.317Z,17184.00
2018-07-19T06:04:01.303Z,17344.00
2018-07-19T06:05:01.290Z,17888.00
2018-07-19T06:06:01.283Z,18400.00
2018-07-19T06:07:01.336Z,19168.00
2018-07-19T06:08:01.254Z,20128.00
2018-07-19T06:09:01.246Z,20416.00
2018-07-19T06:10:01.235Z,20928.00
2018-07-19T06:11:01.227Z,21728.00
2018-07-19T06:12:01.279Z,22144.00
2018-07-19T06:13:01.211Z,21920.00
2018-07-19T06:14:01.191Z,21952.00
2018-07-19T06:15:01.185Z,22944.00
2018-07-19T06:16:01.194Z,22752.00
2018-07-19T06:17:01.227Z,23328.00
2018-07-19T06:18:01.868Z,23936.00
2018-07-19T06:19:01.141Z,24736.00
2018-07-19T06:20:01.124Z,25024.00
2018-07-19T06:21:01.119Z,24896.00
2018-07-19T06:22:01.177Z,25184.00
2018-07-19T06:23:01.101Z,25600.00
2018-07-19T06:24:01.091Z,25760.00
2018-07-19T06:25:01.077Z,26048.00
2018-07-19T06:26:01.068Z,26688.00
2018-07-19T06:27:01.121Z,26144.00
2018-07-19T06:28:01.049Z,26560.00
2018-07-19T06:29:01.041Z,27424.00
2018-07-19T06:30:01.029Z,28032.00
2018-07-19T06:31:01.013Z,27936.00
2018-07-19T06:32:01.071Z,28128.00
2018-07-19T06:33:00.993Z,28736.00
2018-07-19T06:34:00.982Z,29536.00
2018-07-19T06:35:00.970Z,29792.00
2018-07-19T06:36:00.961Z,30560.00
2018-07-19T06:37:01.016Z,31488.00
2018-07-19T06:38:00.939Z,32192.00
2018-07-19T06:39:01.860Z,32576.00
2018-07-19T06:40:00.930Z,32000.00
2018-07-19T06:41:00.908Z,32384.00
2018-07-19T06:42:00.958Z,33824.00
2018-07-19T06:43:00.886Z,34368.00
2018-07-19T06:44:00.891Z,32864.00
2018-07-19T06:45:00.873Z,32192.00
2018-07-19T06:46:00.858Z,32576.00
2018-07-19T06:47:00.905Z,33888.00
2018-07-19T06:48:00.833Z,34528.00
2018-07-19T06:49:00.822Z,34048.00
2018-07-19T06:50:00.814Z,34784.00
2018-07-19T06:51:00.827Z,36544.00
2018-07-19T06:52:00.861Z,37920.00
2018-07-19T06:53:00.788Z,38176.00
2018-07-19T06:54:00.773Z,37728.00
2018-07-19T06:55:00.760Z,38368.00
2018-07-19T06:56:00.757Z,38336.00
2018-07-19T06:57:00.806Z,39008.00
2018-07-19T06:58:00.733Z,38496.00
2018-07-19T06:59:00.741Z,39072.00
2018-07-19T07:00:01.364Z,40768.00
2018-07-19T07:01:00.700Z,41696.00
2018-07-19T07:02:00.758Z,42432.00
2018-07-19T07:03:00.683Z,41952.00
2018-07-19T07:04:01.362Z,43200.00
2018-07-19T07:05:00.656Z,44896.00
2018-07-19T07:06:00.650Z,45952.00
2018-07-19T07:07:00.704Z,45024.00
2018-07-19T07:08:00.628Z,45376.00
2018-07-19T07:09:00.640Z,45568.00
2018-07-19T07:10:00.608Z,44768.00
2018-07-19T07:11:00.602Z,44704.00
2018-07-19T07:12:00.662Z,43744.00
2018-07-19T07:13:01.365Z,43008.00
2018-07-19T07:14:00.594Z,43008.00
2018-07-19T07:15:00.608Z,43296.00
2018-07-19T07:16:00.553Z,43424.00
2018-07-19T07:17:00.539Z,44192.00
2018-07-19T07:18:00.584Z,47136.00
2018-07-19T07:19:00.517Z,48768.00
2018-07-19T07:20:00.508Z,49536.00
2018-07-19T07:21:01.361Z,49312.00
2018-07-19T07:22:00.484Z,51040.00
2018-07-19T07:23:00.531Z,51200.00
2018-07-19T07:24:07.985Z,52032.00
2018-07-19T07:25:00.461Z,53216.00
2018-07-19T07:26:00.444Z,52800.00
2018-07-19T07:27:00.442Z,52800.00
2018-07-19T07:28:00.489Z,54464.00
2018-07-19T07:29:00.416Z,56384.00
2018-07-19T07:30:00.419Z,57760.00
2018-07-19T07:31:00.395Z,58016.00
2018-07-19T07:32:00.384Z,56864.00
2018-07-19T07:33:00.444Z,57600.00
2018-07-19T07:34:00.387Z,57824.00
2018-07-19T07:35:08.509Z,56736.00
2018-07-19T07:36:00.356Z,57344.00
2018-07-19T07:37:00.334Z,58272.00
2018-07-19T07:38:08.490Z,58432.00
2018-07-19T07:39:00.362Z,61344.00
2018-07-19T07:40:08.447Z,62336.00
2018-07-19T07:41:08.441Z,62304.00
2018-07-19T07:42:00.292Z,61472.00
2018-07-19T07:44:00.284Z,58208.00
2018-07-19T07:45:01.035Z,56384.00
2018-07-19T07:46:00.253Z,52128.00
2018-07-19T07:47:00.234Z,56800.00
2018-07-19T07:48:08.473Z,57216.00
2018-07-19T07:49:08.297Z,56000.00
2018-07-19T07:50:00.214Z,53920.00
2018-07-19T07:51:00.204Z,52384.00
2018-07-19T07:52:00.190Z,40544.00
2018-07-19T07:53:00.248Z,37408.00
2018-07-19T07:54:00.177Z,33664.00
2018-07-19T07:55:00.165Z,35168.00
2018-07-19T07:56:00.150Z,39104.00
2018-07-19T07:57:00.158Z,34656.00
2018-07-19T07:58:00.198Z,35136.00
2018-07-19T07:59:00.121Z,36256.00
2018-07-19T08:00:00.112Z,35392.00
2018-07-19T08:01:00.109Z,41568.00
2018-07-19T08:02:00.090Z,34976.00
2018-07-19T08:03:00.145Z,35520.00
2018-07-19T08:04:00.071Z,42016.00
2018-07-19T08:05:00.063Z,47296.00
2018-07-19T08:06:00.075Z,33152.00
2018-07-19T08:07:00.051Z,32576.00
2018-07-19T08:08:00.099Z,32928.00
2018-07-19T08:09:00.090Z,31296.00
2018-07-19T08:10:00.598Z,30656.00
2018-07-19T08:10:59.998Z,30496.00
2018-07-19T08:11:59.997Z,30752.00
2018-07-19T08:13:00.054Z,31840.00
2018-07-19T08:13:59.976Z,30272.00
2018-07-19T08:14:59.967Z,27968.00
2018-07-19T08:15:59.958Z,27456.00
2018-07-19T08:16:59.940Z,29152.00
2018-07-19T08:18:00.000Z,32896.00
2018-07-19T08:18:59.934Z,29920.00
2018-07-19T08:19:59.915Z,30400.00
2018-07-19T08:20:59.904Z,31360.00
2018-07-19T08:21:59.892Z,32288.00
2018-07-19T08:22:59.951Z,32832.00
2018-07-19T08:23:59.874Z,33280.00
2018-07-19T08:24:59.862Z,34272.00
2018-07-19T08:25:59.851Z,35584.00
2018-07-19T08:26:59.854Z,32992.00
2018-07-19T08:27:59.898Z,33088.00
2018-07-19T08:28:59.845Z,33728.00
2018-07-19T08:29:59.814Z,33184.00
2018-07-19T08:31:07.961Z,33408.00
2018-07-19T08:32:07.953Z,33696.00
2018-07-19T08:33:07.944Z,33952.00
2018-07-19T08:34:07.869Z,34336.00
2018-07-19T08:35:07.921Z,35552.00
2018-07-19T08:35:59.823Z,34944.00
2018-07-19T08:36:59.746Z,36032.00
2018-07-19T08:37:59.798Z,36128.00
2018-07-19T08:39:07.822Z,36800.00
2018-07-19T08:40:07.795Z,39552.00
2018-07-19T08:41:07.861Z,46304.00
2018-07-19T08:42:08.336Z,61792.00
2018-07-19T08:43:07.282Z,71008.00
2018-07-19T08:44:07.215Z,83584.00
2018-07-19T08:44:59.665Z,56576.00
2018-07-19T08:45:59.651Z,43200.00
2018-07-19T08:46:59.643Z,40928.00
2018-07-19T08:47:59.696Z,62336.00
2018-07-19T08:48:59.624Z,75744.00
2018-07-19T08:49:59.636Z,82528.00
2018-07-19T08:50:59.607Z,65376.00
2018-07-19T08:51:59.599Z,49472.00
2018-07-19T08:52:59.671Z,41792.00
2018-07-19T08:53:59.574Z,43648.00
2018-07-19T08:54:59.565Z,45952.00
2018-07-19T08:56:30.547Z,39872.00
2018-07-19T08:57:30.453Z,39136.00
2018-07-19T08:58:30.506Z,39008.00
2018-07-19T08:59:30.435Z,39328.00
2018-07-19T09:00:30.420Z,40352.00
2018-07-19T09:01:30.409Z,41856.00
2018-07-19T09:02:30.402Z,43008.00
2018-07-19T09:03:30.461Z,91008.00
2018-07-19T09:04:30.405Z,91776.00
2018-07-19T09:05:30.373Z,84320.00
2018-07-19T09:06:30.362Z,79008.00
2018-07-19T09:07:30.354Z,48640.00
2018-07-19T09:08:30.409Z,74656.00
2018-07-19T09:09:30.336Z,97440.00
2018-07-19T09:10:30.325Z,92864.00
2018-07-19T09:11:30.319Z,98912.00
2018-07-19T09:12:30.306Z,92224.00
2018-07-19T09:13:30.357Z,92736.00
2018-07-19T09:14:30.289Z,91328.00
2018-07-19T09:15:30.286Z,80288.00
2018-07-19T09:16:30.270Z,83616.00
2018-07-19T09:17:31.144Z,76640.00
2018-07-19T09:18:30.314Z,84320.00
2018-07-19T09:19:30.272Z,87200.00
2018-07-19T09:20:30.234Z,88992.00
2018-07-19T09:21:30.225Z,94528.00
2018-07-19T09:22:30.222Z,94528.00
2018-07-19T09:23:30.275Z,84000.00
2018-07-19T09:24:30.205Z,61152.00
2018-07-19T09:25:30.199Z,75648.00
2018-07-19T09:26:30.228Z,89440.00
2018-07-19T09:27:30.177Z,93728.00
2018-07-19T09:28:30.236Z,86592.00
2018-07-19T09:29:30.163Z,86016.00
2018-07-19T09:30:30.166Z,54592.00
2018-07-19T09:31:30.146Z,46336.00
2018-07-19T09:32:30.138Z,47200.00
2018-07-19T09:33:30.196Z,54176.00
2018-07-19T09:34:30.134Z,64160.00
2018-07-19T09:35:30.110Z,83328.00
2018-07-19T09:36:30.102Z,88480.00
2018-07-19T09:37:30.096Z,92704.00
2018-07-19T09:38:30.256Z,103264.00
2018-07-19T09:39:30.077Z,106976.00
2018-07-19T09:40:30.071Z,104160.00
2018-07-19T09:41:30.057Z,98240.00
2018-07-19T09:42:30.052Z,98176.00
2018-07-19T09:43:30.128Z,95584.00
2018-07-19T09:44:30.060Z,98240.00
2018-07-19T09:45:30.027Z,101664.00
2018-07-19T09:46:30.018Z,103264.00
2018-07-19T09:47:30.015Z,103264.00
2018-07-19T09:48:30.005Z,100864.00
2018-07-19T09:49:30.062Z,99264.00
2018-07-19T09:50:29.987Z,99392.00
2018-07-19T09:51:29.984Z,101728.00
2018-07-19T09:52:29.970Z,104160.00
2018-07-19T09:53:29.962Z,104736.00
2018-07-19T09:54:30.029Z,102560.00
2018-07-19T09:55:29.945Z,99232.00
2018-07-19T09:56:29.942Z,97504.00
2018-07-19T09:57:29.936Z,101280.00
2018-07-19T09:58:29.928Z,102080.00
2018-07-19T09:59:30.266Z,103104.00
2018-07-19T10:00:29.911Z,104064.00
2018-07-19T10:01:29.902Z,104128.00
2018-07-19T10:02:29.896Z,97440.00
2018-07-19T10:03:29.891Z,87648.00
2018-07-19T10:04:29.944Z,83296.00
2018-07-19T10:05:29.874Z,87584.00
2018-07-19T10:06:29.863Z,91616.00
2018-07-19T10:07:29.858Z,96832.00
2018-07-19T10:08:29.852Z,101856.00
2018-07-19T10:09:29.910Z,103520.00
2018-07-19T10:10:29.837Z,100704.00
2018-07-19T10:11:29.832Z,102464.00
2018-07-19T10:12:29.823Z,102112.00
2018-07-19T10:13:29.825Z,102816.00
2018-07-19T10:14:29.874Z,102528.00
2018-07-19T10:15:29.851Z,103424.00
2018-07-19T10:16:29.795Z,103104.00
2018-07-19T10:17:29.795Z,101792.00
2018-07-19T10:18:29.778Z,102144.00
2018-07-19T10:19:29.836Z,101248.00
2018-07-19T10:20:30.645Z,99776.00
2018-07-19T10:21:29.759Z,99360.00
2018-07-19T10:22:29.754Z,100032.00
2018-07-19T10:23:29.784Z,101408.00
2018-07-19T10:24:29.802Z,101376.00
2018-07-19T10:25:29.730Z,104992.00
2018-07-19T10:26:29.758Z,104544.00
2018-07-19T10:27:29.713Z,107968.00
2018-07-19T10:28:29.751Z,109120.00
2018-07-19T10:29:29.768Z,107072.00
2018-07-19T10:30:29.690Z,105696.00
2018-07-19T10:31:29.682Z,104288.00
2018-07-19T10:32:29.744Z,103872.00
2018-07-19T10:33:29.671Z,102592.00
2018-07-19T10:34:29.787Z,102880.00
2018-07-19T10:35:29.659Z,99808.00
2018-07-19T10:36:29.653Z,95680.00
2018-07-19T10:37:29.655Z,108128.00
2018-07-19T10:38:29.681Z,93824.00
2018-07-19T10:39:29.698Z,47072.00
2018-07-19T10:40:29.623Z,101888.00
2018-07-19T10:41:30.126Z,107328.00
2018-07-19T10:42:29.610Z,111968.00
2018-07-19T10:43:29.600Z,108544.00
2018-07-19T10:44:29.699Z,108032.00
2018-07-19T10:45:29.588Z,105760.00
2018-07-19T10:46:29.583Z,84992.00
2018-07-19T10:47:29.573Z,100320.00
2018-07-19T10:48:29.566Z,98432.00
2018-07-19T10:49:29.622Z,100320.00
2018-07-19T10:50:29.560Z,101152.00
2018-07-19T10:51:29.551Z,100608.00
2018-07-19T10:52:29.586Z,100736.00
2018-07-19T10:53:29.532Z,104896.00
2018-07-19T10:54:29.593Z,104864.00
2018-07-19T10:55:29.522Z,103552.00
2018-07-19T10:56:29.519Z,100576.00
2018-07-19T10:57:29.590Z,99872.00
2018-07-19T10:58:29.498Z,93952.00
2018-07-19T10:59:29.562Z,90208.00
2018-07-19T11:00:29.487Z,91936.00
2018-07-19T11:01:29.484Z,92512.00
2018-07-19T11:02:30.119Z,94720.00
2018-07-19T11:03:29.470Z,58176.00
2018-07-19T11:04:29.527Z,30400.00
2018-07-19T11:05:29.455Z,77152.00
2018-07-19T11:06:29.452Z,97632.00
2018-07-19T11:07:29.439Z,84992.00
2018-07-19T11:08:29.436Z,87808.00
2018-07-19T11:09:29.510Z,34624.00
2018-07-19T11:10:29.418Z,48800.00
2018-07-19T11:11:29.413Z,51136.00
2018-07-19T11:12:29.405Z,48160.00
2018-07-19T11:13:29.399Z,101664.00
2018-07-19T11:14:29.456Z,101376.00
2018-07-19T11:15:29.384Z,99712.00
2018-07-19T11:16:29.405Z,94880.00
2018-07-19T11:17:29.368Z,96928.00
2018-07-19T11:18:29.362Z,95072.00
2018-07-19T11:19:29.426Z,98592.00
2018-07-19T11:20:29.351Z,99616.00
2018-07-19T11:21:29.342Z,97536.00
2018-07-19T11:22:29.344Z,98112.00
2018-07-19T11:23:30.110Z,95648.00
2018-07-19T11:24:29.389Z,97632.00
2018-07-19T11:25:29.316Z,96544.00
2018-07-19T11:26:29.311Z,97248.00
2018-07-19T11:27:29.305Z,93760.00
2018-07-19T11:28:29.335Z,94304.00
2018-07-19T11:29:29.365Z,100160.00
2018-07-19T11:30:29.306Z,100576.00
2018-07-19T11:31:29.277Z,105440.00
2018-07-19T11:32:29.335Z,102784.00
2018-07-19T11:33:29.290Z,98816.00
2018-07-19T11:34:29.260Z,98496.00
2018-07-19T11:35:29.540Z,97312.00
2018-07-19T11:36:29.670Z,93248.00
2018-07-19T11:37:29.556Z,90752.00
2018-07-19T11:38:29.587Z,90432.00
2018-07-19T11:39:29.257Z,95136.00
2018-07-19T11:40:29.771Z,94496.00
2018-07-19T11:41:29.254Z,94208.00
2018-07-19T11:42:29.579Z,99712.00
2018-07-19T11:43:29.399Z,100992.00
2018-07-19T11:44:30.291Z,95456.00
2018-07-19T11:45:29.619Z,97952.00
2018-07-19T11:46:29.393Z,103296.00
2018-07-19T11:47:29.364Z,98208.00
2018-07-19T11:48:29.356Z,97664.00
2018-07-19T11:49:29.165Z,109568.00
2018-07-19T11:50:29.232Z,100928.00
2018-07-19T11:51:29.154Z,92544.00
2018-07-19T11:52:29.151Z,107840.00
2018-07-19T11:53:29.147Z,96320.00
2018-07-19T11:54:29.134Z,98368.00
2018-07-19T11:55:29.228Z,108288.00
2018-07-19T11:56:29.131Z,101216.00
2018-07-19T11:57:29.118Z,104480.00
2018-07-19T11:58:29.112Z,104672.00
2018-07-19T11:59:29.109Z,101376.00
2018-07-19T12:00:29.171Z,102624.00
2018-07-19T12:01:29.092Z,100480.00
2018-07-19T12:02:29.086Z,66528.00
2018-07-19T12:03:29.080Z,30816.00
2018-07-19T12:04:29.075Z,56832.00
2018-07-19T12:05:29.665Z,65472.00
2018-07-19T12:06:29.066Z,107392.00
2018-07-19T12:07:29.054Z,109664.00
2018-07-19T12:08:29.049Z,105024.00
2018-07-19T12:09:29.040Z,108608.00
2018-07-19T12:10:29.093Z,111040.00
2018-07-19T12:11:29.026Z,104256.00
2018-07-19T12:12:29.020Z,102944.00